sensor_id;sensor_type;location;lat;lon;timestamp;pressure;altitude;pressure_sealevel;temperature;humidity
29909;BME280;36247;51.952;6.146;2024-02-14T00:01:13;101296.09;;;7.88;100.00
29909;BME280;36247;51.952;6.146;2024-02-14T00:03:39;101289.00;;;7.85;100.00
29909;BME280;36247;51.952;6.146;2024-02-14T00:06:05;101283.78;;;7.87;100.00
29909;BME280;36247;51.952;6.146;2024-02-14T00:08:31;101286.56;;;7.91;100.00
29909;BME280;36247;51.952;6.146;2024-02-14T00:10:56;101278.69;;;7.93;100.00
29909;BME280;36247;51.952;6.146;2024-02-14T00:13:21;101282.00;;;7.86;100.00
29909;BME280;36247;51.952;6.146;2024-02-14T00:15:47;101284.16;;;7.99;100.00
29909;BME280;36247;51.952;6.146;2024-02-14T00:18:13;101282.22;;;7.93;100.00
29909;BME280;36247;51.952;6.146;2024-02-14T00:20:38;101266.41;;;7.93;100.00
29909;BME280;36247;51.952;6.146;2024-02-14T00:23:04;101264.59;;;7.92;100.00
29909;BME280;36247;51.952;6.146;2024-02-14T00:25:30;101270.78;;;7.93;100.00
29909;BME280;36247;51.952;6.146;2024-02-14T00:27:55;101276.22;;;7.98;100.00
29909;BME280;36247;51.952;6.146;2024-02-14T00:30:21;101266.59;;;8.00;100.00
29909;BME280;36247;51.952;6.146;2024-02-14T00:32:48;101260.25;;;7.93;100.00
29909;BME280;36247;51.952;6.146;2024-02-14T00:35:13;101264.88;;;8.00;100.00
29909;BME280;36247;51.952;6.146;2024-02-14T00:37:39;101263.00;;;7.98;100.00
29909;BME280;36247;51.952;6.146;2024-02-14T00:40:05;101257.75;;;7.98;100.00
29909;BME280;36247;51.952;6.146;2024-02-14T00:42:31;101250.97;;;8.07;100.00
29909;BME280;36247;51.952;6.146;2024-02-14T00:44:56;101242.00;;;8.01;100.00
29909;BME280;36247;51.952;6.146;2024-02-14T00:47:21;101241.25;;;8.05;100.00
29909;BME280;36247;51.952;6.146;2024-02-14T00:49:47;101237.69;;;8.04;100.00
29909;BME280;36247;51.952;6.146;2024-02-14T00:52:12;101235.19;;;8.09;100.00
29909;BME280;36247;51.952;6.146;2024-02-14T00:54:38;101235.97;;;8.05;100.00
29909;BME280;36247;51.952;6.146;2024-02-14T00:57:03;101234.09;;;8.01;100.00
29909;BME280;36247;51.952;6.146;2024-02-14T00:59:29;101233.25;;;8.02;100.00
29909;BME280;36247;51.952;6.146;2024-02-14T01:01:54;101232.41;;;8.04;100.00
29909;BME280;36247;51.952;6.146;2024-02-14T01:04:19;101225.59;;;8.11;100.00
29909;BME280;36247;51.952;6.146;2024-02-14T01:06:45;101221.13;;;8.08;100.00
29909;BME280;36247;51.952;6.146;2024-02-14T01:09:10;101233.38;;;8.06;100.00
29909;BME280;36247;51.952;6.146;2024-02-14T01:11:36;101237.00;;;8.10;100.00
29909;BME280;36247;51.952;6.146;2024-02-14T01:14:03;101230.88;;;8.11;100.00
29909;BME280;36247;51.952;6.146;2024-02-14T01:16:29;101229.22;;;8.15;100.00
29909;BME280;36247;51.952;6.146;2024-02-14T01:18:54;101227.59;;;8.18;100.00
29909;BME280;36247;51.952;6.146;2024-02-14T01:21:20;101228.63;;;8.25;100.00
29909;BME280;36247;51.952;6.146;2024-02-14T01:23:45;101221.66;;;8.27;100.00
29909;BME280;36247;51.952;6.146;2024-02-14T01:26:11;101227.19;;;8.35;100.00
29909;BME280;36247;51.952;6.146;2024-02-14T01:28:37;101217.47;;;8.34;100.00
29909;BME280;36247;51.952;6.146;2024-02-14T01:31:03;101217.53;;;8.37;100.00
29909;BME280;36247;51.952;6.146;2024-02-14T01:33:28;101215.84;;;8.39;100.00
29909;BME280;36247;51.952;6.146;2024-02-14T01:35:56;101222.03;;;8.39;100.00
29909;BME280;36247;51.952;6.146;2024-02-14T01:38:23;101221.94;;;8.36;100.00
29909;BME280;36247;51.952;6.146;2024-02-14T01:40:48;101212.44;;;8.43;100.00
29909;BME280;36247;51.952;6.146;2024-02-14T01:43:13;101211.69;;;8.45;100.00
29909;BME280;36247;51.952;6.146;2024-02-14T01:45:40;101205.50;;;8.45;100.00
29909;BME280;36247;51.952;6.146;2024-02-14T01:48:06;101202.16;;;8.52;100.00
29909;BME280;36247;51.952;6.146;2024-02-14T01:50:34;101211.00;;;8.53;100.00
29909;BME280;36247;51.952;6.146;2024-02-14T01:53:01;101197.81;;;8.53;100.00
29909;BME280;36247;51.952;6.146;2024-02-14T01:55:27;101203.22;;;8.57;100.00
29909;BME280;36247;51.952;6.146;2024-02-14T01:57:54;101202.38;;;8.58;100.00
29909;BME280;36247;51.952;6.146;2024-02-14T02:00:20;101202.44;;;8.61;100.00
29909;BME280;36247;51.952;6.146;2024-02-14T02:02:45;101203.38;;;8.63;100.00
29909;BME280;36247;51.952;6.146;2024-02-14T02:05:16;101192.94;;;8.68;100.00
29909;BME280;36247;51.952;6.146;2024-02-14T02:07:42;101213.19;;;8.68;100.00
29909;BME280;36247;51.952;6.146;2024-02-14T02:10:11;101198.28;;;8.71;100.00
29909;BME280;36247;51.952;6.146;2024-02-14T02:12:37;101193.88;;;8.72;100.00
29909;BME280;36247;51.952;6.146;2024-02-14T02:15:06;101201.94;;;8.75;100.00
29909;BME280;36247;51.952;6.146;2024-02-14T02:17:33;101201.13;;;8.79;100.00
29909;BME280;36247;51.952;6.146;2024-02-14T02:20:01;101198.41;;;8.76;100.00
29909;BME280;36247;51.952;6.146;2024-02-14T02:22:27;101215.25;;;8.79;100.00
29909;BME280;36247;51.952;6.146;2024-02-14T02:24:54;101211.75;;;8.80;100.00
29909;BME280;36247;51.952;6.146;2024-02-14T02:27:20;101206.50;;;8.82;100.00
29909;BME280;36247;51.952;6.146;2024-02-14T02:29:45;101201.47;;;8.91;100.00
29909;BME280;36247;51.952;6.146;2024-02-14T02:32:11;101208.38;;;8.86;100.00
29909;BME280;36247;51.952;6.146;2024-02-14T02:34:36;101197.13;;;8.93;100.00
29909;BME280;36247;51.952;6.146;2024-02-14T02:37:05;101206.78;;;8.91;100.00
29909;BME280;36247;51.952;6.146;2024-02-14T02:39:33;101206.66;;;8.88;100.00
29909;BME280;36247;51.952;6.146;2024-02-14T02:41:58;101207.53;;;8.87;100.00
29909;BME280;36247;51.952;6.146;2024-02-14T02:44:25;101210.00;;;8.81;100.00
29909;BME280;36247;51.952;6.146;2024-02-14T02:46:50;101197.66;;;8.80;100.00
29909;BME280;36247;51.952;6.146;2024-02-14T02:49:16;101202.94;;;8.80;100.00
29909;BME280;36247;51.952;6.146;2024-02-14T02:51:41;101197.59;;;8.78;100.00
29909;BME280;36247;51.952;6.146;2024-02-14T02:54:06;101190.72;;;8.85;100.00
29909;BME280;36247;51.952;6.146;2024-02-14T02:56:33;101199.44;;;8.81;100.00
29909;BME280;36247;51.952;6.146;2024-02-14T02:58:59;101199.44;;;8.81;100.00
29909;BME280;36247;51.952;6.146;2024-02-14T03:01:24;101197.84;;;8.88;100.00
29909;BME280;36247;51.952;6.146;2024-02-14T03:03:50;101201.25;;;8.83;100.00
29909;BME280;36247;51.952;6.146;2024-02-14T03:06:15;101200.41;;;8.85;100.00
29909;BME280;36247;51.952;6.146;2024-02-14T03:08:41;101196.00;;;8.85;100.00
29909;BME280;36247;51.952;6.146;2024-02-14T03:11:07;101206.63;;;8.87;100.00
29909;BME280;36247;51.952;6.146;2024-02-14T03:13:33;101205.78;;;8.88;100.00
29909;BME280;36247;51.952;6.146;2024-02-14T03:15:58;101213.81;;;8.92;100.00
29909;BME280;36247;51.952;6.146;2024-02-14T03:18:24;101208.53;;;8.92;100.00
29909;BME280;36247;51.952;6.146;2024-02-14T03:20:50;101212.97;;;8.93;100.00
29909;BME280;36247;51.952;6.146;2024-02-14T03:23:15;101212.13;;;8.94;100.00
29909;BME280;36247;51.952;6.146;2024-02-14T03:25:41;101219.19;;;8.95;100.00
29909;BME280;36247;51.952;6.146;2024-02-14T03:28:07;101214.75;;;8.93;100.00
29909;BME280;36247;51.952;6.146;2024-02-14T03:30:34;101214.78;;;8.94;100.00
29909;BME280;36247;51.952;6.146;2024-02-14T03:33:00;101206.00;;;8.97;100.00
29909;BME280;36247;51.952;6.146;2024-02-14T03:35:25;101211.28;;;8.97;100.00
29909;BME280;36247;51.952;6.146;2024-02-14T03:37:52;101221.06;;;8.99;100.00
29909;BME280;36247;51.952;6.146;2024-02-14T03:40:18;101214.94;;;9.00;100.00
29909;BME280;36247;51.952;6.146;2024-02-14T03:42:45;101215.75;;;8.98;100.00
29909;BME280;36247;51.952;6.146;2024-02-14T03:45:11;101222.78;;;8.97;100.00
29909;BME280;36247;51.952;6.146;2024-02-14T03:47:37;101221.97;;;9.02;100.00
29909;BME280;36247;51.952;6.146;2024-02-14T03:50:05;101231.66;;;9.01;100.00
29909;BME280;36247;51.952;6.146;2024-02-14T03:52:32;101234.47;;;9.07;100.00
29909;BME280;36247;51.952;6.146;2024-02-14T03:54:58;101227.31;;;9.03;100.00
29909;BME280;36247;51.952;6.146;2024-02-14T03:57:25;101231.78;;;9.06;100.00
29909;BME280;36247;51.952;6.146;2024-02-14T03:59:52;101226.59;;;9.09;100.00
29909;BME280;36247;51.952;6.146;2024-02-14T04:02:17;101221.44;;;9.15;100.00
29909;BME280;36247;51.952;6.146;2024-02-14T04:04:44;101233.09;;;9.22;100.00
29909;BME280;36247;51.952;6.146;2024-02-14T04:07:12;101235.75;;;9.22;100.00
29909;BME280;36247;51.952;6.146;2024-02-14T04:09:37;101245.47;;;9.23;100.00
29909;BME280;36247;51.952;6.146;2024-02-14T04:12:03;101226.28;;;9.31;100.00
29909;BME280;36247;51.952;6.146;2024-02-14T04:14:28;101237.81;;;9.33;100.00
29909;BME280;36247;51.952;6.146;2024-02-14T04:16:54;101239.69;;;9.38;100.00
29909;BME280;36247;51.952;6.146;2024-02-14T04:19:19;101237.72;;;9.30;100.00
29909;BME280;36247;51.952;6.146;2024-02-14T04:21:45;101240.41;;;9.32;100.00
29909;BME280;36247;51.952;6.146;2024-02-14T04:24:11;101232.44;;;9.30;100.00
29909;BME280;36247;51.952;6.146;2024-02-14T04:26:36;101243.00;;;9.30;100.00
29909;BME280;36247;51.952;6.146;2024-02-14T04:29:02;101244.97;;;9.38;100.00
29909;BME280;36247;51.952;6.146;2024-02-14T04:31:27;101242.34;;;9.39;100.00
29909;BME280;36247;51.952;6.146;2024-02-14T04:33:55;101240.59;;;9.40;100.00
29909;BME280;36247;51.952;6.146;2024-02-14T04:36:21;101247.75;;;9.44;100.00
29909;BME280;36247;51.952;6.146;2024-02-14T04:38:48;101252.09;;;9.42;100.00
29909;BME280;36247;51.952;6.146;2024-02-14T04:41:15;101253.19;;;9.50;100.00
29909;BME280;36247;51.952;6.146;2024-02-14T04:43:40;101252.25;;;9.48;100.00
29909;BME280;36247;51.952;6.146;2024-02-14T04:46:06;101251.25;;;9.43;100.00
29909;BME280;36247;51.952;6.146;2024-02-14T04:48:33;101251.22;;;9.41;100.00
29909;BME280;36247;51.952;6.146;2024-02-14T04:50:58;101248.50;;;9.38;100.00
29909;BME280;36247;51.952;6.146;2024-02-14T04:53:24;101253.75;;;9.37;100.00
29909;BME280;36247;51.952;6.146;2024-02-14T04:55:50;101257.38;;;9.42;100.00
29909;BME280;36247;51.952;6.146;2024-02-14T04:58:15;101277.50;;;9.35;100.00
29909;BME280;36247;51.952;6.146;2024-02-14T05:00:41;101262.44;;;9.32;100.00
29909;BME280;36247;51.952;6.146;2024-02-14T05:03:06;101263.44;;;9.36;100.00
29909;BME280;36247;51.952;6.146;2024-02-14T05:05:32;101263.44;;;9.36;100.00
29909;BME280;36247;51.952;6.146;2024-02-14T05:07:59;101268.72;;;9.36;100.00
29909;BME280;36247;51.952;6.146;2024-02-14T05:10:24;101267.88;;;9.39;100.00
29909;BME280;36247;51.952;6.146;2024-02-14T05:12:50;101269.59;;;9.37;100.00
29909;BME280;36247;51.952;6.146;2024-02-14T05:15:15;101278.47;;;9.39;100.00
29909;BME280;36247;51.952;6.146;2024-02-14T05:17:42;101273.31;;;9.45;100.00
29909;BME280;36247;51.952;6.146;2024-02-14T05:20:10;101278.75;;;9.49;100.00
29909;BME280;36247;51.952;6.146;2024-02-14T05:22:36;101284.91;;;9.48;100.00
29909;BME280;36247;51.952;6.146;2024-02-14T05:25:03;101282.25;;;9.48;100.00
29909;BME280;36247;51.952;6.146;2024-02-14T05:27:30;101281.41;;;9.49;100.00
29909;BME280;36247;51.952;6.146;2024-02-14T05:29:55;101278.81;;;9.51;100.00
29909;BME280;36247;51.952;6.146;2024-02-14T05:32:20;101278.69;;;9.48;100.00
29909;BME280;36247;51.952;6.146;2024-02-14T05:34:46;101277.88;;;9.50;100.00
29909;BME280;36247;51.952;6.146;2024-02-14T05:37:11;101288.47;;;9.50;100.00
29909;BME280;36247;51.952;6.146;2024-02-14T05:39:36;101286.72;;;9.51;100.00
29909;BME280;36247;51.952;6.146;2024-02-14T05:42:02;101282.22;;;9.47;100.00
29909;BME280;36247;51.952;6.146;2024-02-14T05:44:29;101286.72;;;9.51;100.00
29909;BME280;36247;51.952;6.146;2024-02-14T05:46:55;101287.63;;;9.51;100.00
29909;BME280;36247;51.952;6.146;2024-02-14T05:49:22;101297.31;;;9.51;100.00
29909;BME280;36247;51.952;6.146;2024-02-14T05:51:47;101303.38;;;9.47;100.00
29909;BME280;36247;51.952;6.146;2024-02-14T05:54:12;101308.88;;;9.56;100.00
29909;BME280;36247;51.952;6.146;2024-02-14T05:56:38;101301.84;;;9.57;100.00
29909;BME280;36247;51.952;6.146;2024-02-14T05:59:03;101306.16;;;9.53;100.00
29909;BME280;36247;51.952;6.146;2024-02-14T06:01:28;101308.03;;;9.57;100.00
29909;BME280;36247;51.952;6.146;2024-02-14T06:03:54;101307.13;;;9.57;100.00
29909;BME280;36247;51.952;6.146;2024-02-14T06:06:19;101304.41;;;9.53;100.00
29909;BME280;36247;51.952;6.146;2024-02-14T06:08:44;101299.19;;;9.57;100.00
29909;BME280;36247;51.952;6.146;2024-02-14T06:11:10;101315.81;;;9.51;100.00
29909;BME280;36247;51.952;6.146;2024-02-14T06:13:37;101297.53;;;9.60;100.00
29909;BME280;36247;51.952;6.146;2024-02-14T06:16:03;101307.25;;;9.61;100.00
29909;BME280;36247;51.952;6.146;2024-02-14T06:18:28;101302.72;;;9.56;100.00
29909;BME280;36247;51.952;6.146;2024-02-14T06:20:54;101307.13;;;9.57;100.00
29909;BME280;36247;51.952;6.146;2024-02-14T06:23:19;101305.44;;;9.59;100.00
29909;BME280;36247;51.952;6.146;2024-02-14T06:25:44;101309.78;;;9.57;100.00
29909;BME280;36247;51.952;6.146;2024-02-14T06:28:10;101309.88;;;9.61;100.00
29909;BME280;36247;51.952;6.146;2024-02-14T06:30:35;101307.13;;;9.57;100.00
29909;BME280;36247;51.952;6.146;2024-02-14T06:33:01;101326.53;;;9.56;100.00
29909;BME280;36247;51.952;6.146;2024-02-14T06:35:27;101329.25;;;9.59;100.00
29909;BME280;36247;51.952;6.146;2024-02-14T06:37:54;101330.16;;;9.61;100.00
29909;BME280;36247;51.952;6.146;2024-02-14T06:40:19;101331.84;;;9.57;100.00
29909;BME280;36247;51.952;6.146;2024-02-14T06:42:45;101333.63;;;9.58;100.00
29909;BME280;36247;51.952;6.146;2024-02-14T06:45:11;101337.13;;;9.57;100.00
29909;BME280;36247;51.952;6.146;2024-02-14T06:47:36;101338.06;;;9.59;100.00
29909;BME280;36247;51.952;6.146;2024-02-14T06:50:01;101338.78;;;9.53;100.00
29909;BME280;36247;51.952;6.146;2024-02-14T06:52:27;101344.28;;;9.61;100.00
29909;BME280;36247;51.952;6.146;2024-02-14T06:54:52;101336.34;;;9.61;100.00
29909;BME280;36247;51.952;6.146;2024-02-14T06:57:18;101323.91;;;9.57;100.00
29909;BME280;36247;51.952;6.146;2024-02-14T06:59:43;101346.91;;;9.61;100.00
29909;BME280;36247;51.952;6.146;2024-02-14T07:02:08;101360.19;;;9.63;100.00
29909;BME280;36247;51.952;6.146;2024-02-14T07:04:34;101347.94;;;9.66;100.00
29909;BME280;36247;51.952;6.146;2024-02-14T07:06:59;101347.88;;;9.63;100.00
29909;BME280;36247;51.952;6.146;2024-02-14T07:09:26;101356.81;;;9.68;100.00
29909;BME280;36247;51.952;6.146;2024-02-14T07:11:51;101352.47;;;9.70;100.00
29909;BME280;36247;51.952;6.146;2024-02-14T07:14:22;101368.31;;;9.69;100.00
29909;BME280;36247;51.952;6.146;2024-02-14T07:16:47;101346.31;;;9.71;100.00
29909;BME280;36247;51.952;6.146;2024-02-14T07:19:12;101356.97;;;9.75;100.00
29909;BME280;36247;51.952;6.146;2024-02-14T07:21:38;101357.84;;;9.74;100.00
29909;BME280;36247;51.952;6.146;2024-02-14T07:24:04;101362.34;;;9.78;100.00
29909;BME280;36247;51.952;6.146;2024-02-14T07:26:30;101360.59;;;9.78;100.00
29909;BME280;36247;51.952;6.146;2024-02-14T07:28:55;101359.75;;;9.79;100.00
29909;BME280;36247;51.952;6.146;2024-02-14T07:31:21;101360.88;;;9.89;100.00
29909;BME280;36247;51.952;6.146;2024-02-14T07:33:46;101362.50;;;9.84;100.00
29909;BME280;36247;51.952;6.146;2024-02-14T07:36:13;101361.75;;;9.89;100.00
29909;BME280;36247;51.952;6.146;2024-02-14T07:38:39;101365.19;;;9.85;100.00
29909;BME280;36247;51.952;6.146;2024-02-14T07:41:04;101355.66;;;9.92;100.00
29909;BME280;36247;51.952;6.146;2024-02-14T07:43:30;101369.72;;;9.91;100.00
29909;BME280;36247;51.952;6.146;2024-02-14T07:45:55;101359.25;;;9.94;100.00
29909;BME280;36247;51.952;6.146;2024-02-14T07:48:21;101359.34;;;9.99;100.00
29909;BME280;36247;51.952;6.146;2024-02-14T07:50:47;101363.63;;;9.94;100.00
29909;BME280;36247;51.952;6.146;2024-02-14T07:53:13;101360.31;;;10.02;100.00
29909;BME280;36247;51.952;6.146;2024-02-14T07:55:38;101368.22;;;10.01;100.00
29909;BME280;36247;51.952;6.146;2024-02-14T07:58:05;101380.66;;;10.03;100.00
29909;BME280;36247;51.952;6.146;2024-02-14T08:00:30;101380.53;;;9.99;100.00
29909;BME280;36247;51.952;6.146;2024-02-14T08:02:56;101367.41;;;10.03;100.00
29909;BME280;36247;51.952;6.146;2024-02-14T08:05:21;101373.72;;;10.10;100.00
29909;BME280;36247;51.952;6.146;2024-02-14T08:07:46;101373.63;;;10.05;100.00
29909;BME280;36247;51.952;6.146;2024-02-14T08:10:12;101381.59;;;10.07;100.00
29909;BME280;36247;51.952;6.146;2024-02-14T08:12:38;101375.53;;;10.11;100.00
29909;BME280;36247;51.952;6.146;2024-02-14T08:15:03;101380.09;;;10.17;100.00
29909;BME280;36247;51.952;6.146;2024-02-14T08:17:31;101381.66;;;10.10;100.00
29909;BME280;36247;51.952;6.146;2024-02-14T08:19:57;101379.06;;;10.12;100.00
29909;BME280;36247;51.952;6.146;2024-02-14T08:22:22;101383.59;;;10.16;100.00
29909;BME280;36247;51.952;6.146;2024-02-14T08:24:47;101385.47;;;10.20;100.00
29909;BME280;36247;51.952;6.146;2024-02-14T08:27:13;101382.81;;;10.20;100.00
29909;BME280;36247;51.952;6.146;2024-02-14T08:29:38;101400.47;;;10.21;100.00
29909;BME280;36247;51.952;6.146;2024-02-14T08:32:04;101390.84;;;10.24;100.00
29909;BME280;36247;51.952;6.146;2024-02-14T08:34:30;101395.28;;;10.24;100.00
29909;BME280;36247;51.952;6.146;2024-02-14T08:36:55;101405.94;;;10.27;100.00
29909;BME280;36247;51.952;6.146;2024-02-14T08:39:21;101395.13;;;10.19;100.00
29909;BME280;36247;51.952;6.146;2024-02-14T08:41:46;101400.38;;;10.18;100.00
29909;BME280;36247;51.952;6.146;2024-02-14T08:44:13;101400.38;;;10.18;100.00
29909;BME280;36247;51.952;6.146;2024-02-14T08:46:38;101410.28;;;10.25;100.00
29909;BME280;36247;51.952;6.146;2024-02-14T08:49:04;101401.44;;;10.24;100.00
29909;BME280;36247;51.952;6.146;2024-02-14T08:51:36;101404.09;;;10.24;100.00
29909;BME280;36247;51.952;6.146;2024-02-14T08:54:04;101408.50;;;10.24;100.00
29909;BME280;36247;51.952;6.146;2024-02-14T08:56:34;101408.50;;;10.24;100.00
29909;BME280;36247;51.952;6.146;2024-02-14T08:59:03;101402.41;;;10.28;100.00
29909;BME280;36247;51.952;6.146;2024-02-14T09:01:32;101399.78;;;10.30;100.00
29909;BME280;36247;51.952;6.146;2024-02-14T09:03:58;101403.56;;;10.38;100.00
29909;BME280;36247;51.952;6.146;2024-02-14T09:06:24;101417.66;;;10.37;100.00
29909;BME280;36247;51.952;6.146;2024-02-14T09:08:51;101406.91;;;10.32;100.00
29909;BME280;36247;51.952;6.146;2024-02-14T09:11:17;101407.88;;;10.34;100.00
29909;BME280;36247;51.952;6.146;2024-02-14T09:13:43;101414.78;;;10.29;100.00
29909;BME280;36247;51.952;6.146;2024-02-14T09:16:09;101412.47;;;10.41;100.00
29909;BME280;36247;51.952;6.146;2024-02-14T09:18:36;101409.69;;;10.35;100.00
29909;BME280;36247;51.952;6.146;2024-02-14T09:21:01;101412.38;;;10.37;100.00
29909;BME280;36247;51.952;6.146;2024-02-14T09:23:30;101415.13;;;10.41;100.00
29909;BME280;36247;51.952;6.146;2024-02-14T09:25:56;101409.16;;;10.50;100.00
29909;BME280;36247;51.952;6.146;2024-02-14T09:28:22;101421.34;;;10.42;100.00
29909;BME280;36247;51.952;6.146;2024-02-14T09:30:48;101424.91;;;10.44;100.00
29909;BME280;36247;51.952;6.146;2024-02-14T09:33:13;101420.41;;;10.41;100.00
29909;BME280;36247;51.952;6.146;2024-02-14T09:35:39;101424.81;;;10.41;100.00
29909;BME280;36247;51.952;6.146;2024-02-14T09:38:10;101423.09;;;10.43;100.00
29909;BME280;36247;51.952;6.146;2024-02-14T09:40:38;101432.09;;;10.50;100.00
29909;BME280;36247;51.952;6.146;2024-02-14T09:43:05;101431.31;;;10.54;100.00
29909;BME280;36247;51.952;6.146;2024-02-14T09:45:36;101440.94;;;10.50;100.00
29909;BME280;36247;51.952;6.146;2024-02-14T09:48:02;101443.97;;;10.67;100.00
29909;BME280;36247;51.952;6.146;2024-02-14T09:50:29;101439.28;;;10.54;100.00
29909;BME280;36247;51.952;6.146;2024-02-14T09:52:56;101433.97;;;10.54;100.00
29909;BME280;36247;51.952;6.146;2024-02-14T09:55:23;101446.25;;;10.52;100.00
29909;BME280;36247;51.952;6.146;2024-02-14T09:57:48;101448.91;;;10.52;100.00
29909;BME280;36247;51.952;6.146;2024-02-14T10:00:14;101438.44;;;10.56;100.00
29909;BME280;36247;51.952;6.146;2024-02-14T10:02:41;101457.75;;;10.52;100.00
29909;BME280;36247;51.952;6.146;2024-02-14T10:05:07;101457.59;;;10.46;100.00
29909;BME280;36247;51.952;6.146;2024-02-14T10:07:43;101447.03;;;10.48;100.00
29909;BME280;36247;51.952;6.146;2024-02-14T10:10:09;101460.28;;;10.48;100.00
29909;BME280;36247;51.952;6.146;2024-02-14T10:12:35;101459.44;;;10.49;100.00
29909;BME280;36247;51.952;6.146;2024-02-14T10:15:01;101463.97;;;10.53;100.00
29909;BME280;36247;51.952;6.146;2024-02-14T10:17:27;101453.38;;;10.53;100.00
29909;BME280;36247;51.952;6.146;2024-02-14T10:19:59;101447.34;;;10.60;100.00
29909;BME280;36247;51.952;6.146;2024-02-14T10:22:32;101453.47;;;10.57;100.00
29909;BME280;36247;51.952;6.146;2024-02-14T10:24:59;101459.72;;;10.61;100.00
29909;BME280;36247;51.952;6.146;2024-02-14T10:27:25;101461.63;;;10.67;100.00
29909;BME280;36247;51.952;6.146;2024-02-14T10:29:51;101471.59;;;10.77;100.00
29909;BME280;36247;51.952;6.146;2024-02-14T10:32:16;101468.97;;;10.79;100.00
29909;BME280;36247;51.952;6.146;2024-02-14T10:34:43;101458.44;;;10.82;100.00
29909;BME280;36247;51.952;6.146;2024-02-14T10:37:13;101467.47;;;10.90;100.00
29909;BME280;36247;51.952;6.146;2024-02-14T10:39:40;101465.81;;;10.95;100.00
29909;BME280;36247;51.952;6.146;2024-02-14T10:42:06;101462.56;;;11.08;100.00
29909;BME280;36247;51.952;6.146;2024-02-14T10:44:32;101470.25;;;10.96;100.00
29909;BME280;36247;51.952;6.146;2024-02-14T10:46:59;101468.22;;;10.84;100.00
29909;BME280;36247;51.952;6.146;2024-02-14T10:49:29;101481.69;;;10.93;100.00
29909;BME280;36247;51.952;6.146;2024-02-14T10:51:58;101464.38;;;11.09;100.00
29909;BME280;36247;51.952;6.146;2024-02-14T10:54:26;101467.78;;;11.04;100.00
29909;BME280;36247;51.952;6.146;2024-02-14T10:56:53;101458.94;;;11.03;100.00
29909;BME280;36247;51.952;6.146;2024-02-14T10:59:23;101464.28;;;11.05;100.00
29909;BME280;36247;51.952;6.146;2024-02-14T11:01:50;101468.03;;;11.16;100.00
29909;BME280;36247;51.952;6.146;2024-02-14T11:04:17;101474.13;;;11.12;100.00
29909;BME280;36247;51.952;6.146;2024-02-14T11:06:53;101469.00;;;11.20;100.00
29909;BME280;36247;51.952;6.146;2024-02-14T11:09:32;101469.13;;;11.26;100.00
29909;BME280;36247;51.952;6.146;2024-02-14T11:12:00;101468.16;;;11.22;100.00
29909;BME280;36247;51.952;6.146;2024-02-14T11:14:31;101477.16;;;11.29;100.00
29909;BME280;36247;51.952;6.146;2024-02-14T11:16:56;101464.00;;;11.35;100.00
29909;BME280;36247;51.952;6.146;2024-02-14T11:19:30;101470.34;;;11.43;100.00
29909;BME280;36247;51.952;6.146;2024-02-14T11:21:58;101470.13;;;11.31;100.00
29909;BME280;36247;51.952;6.146;2024-02-14T11:24:28;101468.38;;;11.32;100.00
29909;BME280;36247;51.952;6.146;2024-02-14T11:26:56;101453.38;;;11.34;100.00
29909;BME280;36247;51.952;6.146;2024-02-14T11:29:28;101456.19;;;11.41;100.00
29909;BME280;36247;51.952;6.146;2024-02-14T11:32:01;101450.03;;;11.42;100.00
29909;BME280;36247;51.952;6.146;2024-02-14T11:34:28;101450.91;;;11.43;100.00
29909;BME280;36247;51.952;6.146;2024-02-14T11:36:54;101460.75;;;11.49;100.00
29909;BME280;36247;51.952;6.146;2024-02-14T11:39:20;101462.38;;;11.42;100.00
29909;BME280;36247;51.952;6.146;2024-02-14T11:41:45;101452.69;;;11.44;100.00
29909;BME280;36247;51.952;6.146;2024-02-14T11:44:11;101445.66;;;11.46;100.00
29909;BME280;36247;51.952;6.146;2024-02-14T11:46:37;101442.97;;;11.44;100.00
29909;BME280;36247;51.952;6.146;2024-02-14T11:49:04;101437.84;;;11.54;100.00
29909;BME280;36247;51.952;6.146;2024-02-14T11:51:32;101435.28;;;11.58;100.00
29909;BME280;36247;51.952;6.146;2024-02-14T11:53:59;101437.84;;;11.54;100.00
29909;BME280;36247;51.952;6.146;2024-02-14T11:56:31;101457.97;;;11.42;100.00
29909;BME280;36247;51.952;6.146;2024-02-14T11:59:00;101443.00;;;11.46;100.00
29909;BME280;36247;51.952;6.146;2024-02-14T12:01:29;101458.53;;;11.26;100.00
29909;BME280;36247;51.952;6.146;2024-02-14T12:03:57;101452.78;;;11.49;100.00
29909;BME280;36247;51.952;6.146;2024-02-14T12:06:23;101449.22;;;11.46;100.00
29909;BME280;36247;51.952;6.146;2024-02-14T12:08:49;101441.19;;;11.43;100.00
29909;BME280;36247;51.952;6.146;2024-02-14T12:11:15;101434.81;;;11.34;100.00
29909;BME280;36247;51.952;6.146;2024-02-14T12:13:40;101435.63;;;11.31;100.00
29909;BME280;36247;51.952;6.146;2024-02-14T12:16:08;101457.72;;;11.30;100.00
29909;BME280;36247;51.952;6.146;2024-02-14T12:18:35;101460.44;;;11.33;100.00
29909;BME280;36247;51.952;6.146;2024-02-14T12:21:04;101439.34;;;11.39;100.00
29909;BME280;36247;51.952;6.146;2024-02-14T12:23:33;101441.13;;;11.42;100.00
29909;BME280;36247;51.952;6.146;2024-02-14T12:26:02;101430.66;;;11.46;100.00
29909;BME280;36247;51.952;6.146;2024-02-14T12:28:29;101432.31;;;11.41;100.00
29909;BME280;36247;51.952;6.146;2024-02-14T12:30:56;101439.34;;;11.39;100.00
29909;BME280;36247;51.952;6.146;2024-02-14T12:33:23;101433.31;;;11.46;100.00
29909;BME280;36247;51.952;6.146;2024-02-14T12:35:50;101426.13;;;11.42;100.00
29909;BME280;36247;51.952;6.146;2024-02-14T12:38:17;101431.75;;;11.58;100.00
29909;BME280;36247;51.952;6.146;2024-02-14T12:40:44;101440.91;;;11.75;100.00